Time;durP1;ratioP1;P1;durP2;ratioP2;P2;SDS_P1;SDS_P2;PMS_P1;PMS_P2;Temp;Humidity;BMP_temperature;BMP_pressure;BME280_temperature;BME280_humidity;BME280_pressure;Samples;Min_cycle;Max_cycle;Signal;HPM_P1;HPM_P2
2020/12/13 00:00:34;;;;;;;50.58;27.52;;;;;;;2.51;86.27;99828.34;1734452;82;25826;-80
2020/12/13 00:03:01;;;;;;;52.13;27.48;;;;;;;2.51;86.27;99830.08;1728375;81;25785;-80
2020/12/13 00:05:29;;;;;;;55.45;29.75;;;;;;;2.56;86.48;99828.75;1727614;82;25803;-80
2020/12/13 00:07:55;;;;;;;56.37;29.02;;;;;;;2.60;86.51;99835.78;1728632;81;25742;-79
2020/12/13 00:10:23;;;;;;;45.48;27.00;;;;;;;2.60;86.39;99840.95;1730360;81;25789;-80
2020/12/13 00:12:49;;;;;;;49.93;27.95;;;;;;;2.60;86.39;99840.95;1731219;81;25813;-79
2020/12/13 00:15:18;;;;;;;49.42;27.50;;;;;;;2.57;86.44;99839.91;1725487;81;25744;-79
2020/12/13 00:17:47;;;;;;;47.75;27.55;;;;;;;2.56;86.44;99843.42;1728129;81;26668;-80
2020/12/13 00:20:13;;;;;;;43.98;25.25;;;;;;;2.55;86.49;99836.16;1722395;81;26414;-80
2020/12/13 00:22:39;;;;;;;42.35;25.05;;;;;;;2.56;86.58;99840.84;1722824;81;25727;-79
2020/12/13 00:25:06;;;;;;;42.20;23.40;;;;;;;2.52;86.37;99842.05;1705054;82;25760;-79
2020/12/13 00:27:32;;;;;;;39.42;21.82;;;;;;;2.37;86.40;99819.60;1728116;81;25677;-80
2020/12/13 00:29:58;;;;;;;35.17;20.27;;;;;;;2.51;86.53;99841.23;1693118;81;27945;-79
2020/12/13 00:32:29;;;;;;;41.35;23.52;;;;;;;2.50;86.45;99840.87;1722281;82;26714;-79
2020/12/13 00:34:56;;;;;;;36.55;21.25;;;;;;;2.54;86.53;99842.75;1722053;82;25535;-80
2020/12/13 00:37:25;;;;;;;39.70;23.73;;;;;;;2.58;86.55;99840.25;1723592;82;25530;-79
2020/12/13 00:39:52;;;;;;;40.88;22.67;;;;;;;2.60;86.51;99847.39;1756375;81;25848;-80
2020/12/13 00:42:19;;;;;;;39.90;23.02;;;;;;;2.61;86.43;99850.31;1713744;83;25782;-79
2020/12/13 00:44:46;;;;;;;36.28;23.10;;;;;;;2.59;86.38;99852.19;1715398;82;25769;-79
2020/12/13 00:47:12;;;;;;;38.05;22.65;;;;;;;2.59;86.48;99853.03;1727513;81;25788;-80
2020/12/13 00:49:38;;;;;;;40.28;23.02;;;;;;;2.57;86.38;99852.81;1719612;81;25750;-78
2020/12/13 00:52:06;;;;;;;38.65;22.00;;;;;;;2.55;86.40;99854.69;1734988;80;25700;-80
2020/12/13 00:54:33;;;;;;;34.05;20.10;;;;;;;2.53;86.46;99853.98;1732372;80;27184;-80
2020/12/13 00:56:59;;;;;;;34.70;21.25;;;;;;;2.51;86.68;99848.13;1735752;80;25755;-80
2020/12/13 00:59:26;;;;;;;36.33;20.43;;;;;;;2.50;86.52;99852.95;1733706;80;25743;-79
2020/12/13 01:01:52;;;;;;;31.85;19.27;;;;;;;2.50;86.52;99852.95;1732656;80;25796;-80
2020/12/13 01:04:18;;;;;;;35.20;20.57;;;;;;;2.52;86.48;99855.76;1731943;82;26388;-79
2020/12/13 01:06:45;;;;;;;30.45;18.42;;;;;;;2.54;86.49;99853.06;1729483;80;26295;-80
2020/12/13 01:09:11;;;;;;;33.38;20.65;;;;;;;2.55;86.47;99854.21;1731151;80;25748;-79
2020/12/13 01:11:37;;;;;;;36.08;21.75;;;;;;;2.57;86.48;99857.97;1731731;82;26307;-79
2020/12/13 01:14:04;;;;;;;34.30;20.70;;;;;;;2.62;86.58;99870.02;1729561;82;25704;-79
2020/12/13 01:16:31;;;;;;;38.98;23.75;;;;;;;2.56;86.31;99857.13;1733991;80;26273;-80
2020/12/13 01:18:59;;;;;;;40.05;22.80;;;;;;;2.56;86.31;99857.13;1736477;82;25887;-79
2020/12/13 01:21:28;;;;;;;40.35;24.18;;;;;;;2.58;86.61;99862.17;1720324;82;26221;-79
2020/12/13 01:23:56;;;;;;;38.38;21.87;;;;;;;2.52;86.55;99850.59;1728930;82;25744;-79
2020/12/13 01:26:27;;;;;;;38.33;22.30;;;;;;;2.53;86.43;99861.25;1719327;80;25787;-79
2020/12/13 01:28:54;;;;;;;41.13;23.00;;;;;;;2.48;86.66;99865.16;1736880;82;25617;-79
2020/12/13 01:31:22;;;;;;;39.92;24.25;;;;;;;2.59;86.75;99871.09;1736439;80;26350;-79
2020/12/13 01:33:51;;;;;;;43.38;24.00;;;;;;;2.63;86.75;99875.03;1732134;80;26281;-79
2020/12/13 01:36:24;;;;;;;42.30;23.50;;;;;;;2.69;86.83;99872.90;1732592;80;25757;-80
2020/12/13 01:38:51;;;;;;;38.55;21.42;;;;;;;2.70;86.78;99871.50;1731843;80;25837;-80
2020/12/13 01:41:19;;;;;;;38.35;22.30;;;;;;;2.72;86.73;99874.75;1736479;80;25603;-79
2020/12/13 01:44:01;;;;;;;40.33;23.25;;;;;;;2.74;86.79;99874.16;1728733;80;25873;-80
2020/12/13 01:46:28;;;;;;;39.00;23.65;;;;;;;2.78;86.81;99873.42;1724781;80;25621;-79
2020/12/13 01:49:03;;;;;;;40.88;24.75;;;;;;;2.80;86.83;99877.52;1732340;80;25516;-79
2020/12/13 01:51:46;;;;;;;40.33;25.10;;;;;;;2.83;86.82;99886.77;1701773;82;25658;-79
2020/12/13 01:54:10;;;;;;;43.80;25.12;;;;;;;2.82;86.73;99882.08;1718153;82;25852;-79
2020/12/13 01:56:38;;;;;;;42.85;26.10;;;;;;;2.75;86.75;99882.71;1719435;81;25876;-79
2020/12/13 01:59:07;;;;;;;40.58;23.50;;;;;;;2.62;86.84;99860.99;1718003;82;25346;-79
2020/12/13 02:01:38;;;;;;;43.58;25.55;;;;;;;2.62;86.84;99860.99;1723074;81;25758;-80
2020/12/13 02:04:07;;;;;;;40.70;24.70;;;;;;;2.75;86.92;99882.23;1713506;81;25869;-79
2020/12/13 02:06:34;;;;;;;41.08;25.75;;;;;;;2.77;86.91;99882.12;1717242;81;25688;-80
2020/12/13 02:09:01;;;;;;;41.70;26.10;;;;;;;2.66;86.86;99859.30;1705667;81;25756;-79
2020/12/13 02:11:31;;;;;;;41.75;23.70;;;;;;;2.69;86.90;99860.00;1724630;81;25763;-79
2020/12/13 02:13:56;;;;;;;43.20;25.85;;;;;;;2.83;86.90;99880.31;1705787;82;26388;-80
2020/12/13 02:16:22;;;;;;;41.65;25.40;;;;;;;2.86;86.89;99885.22;1715127;82;25306;-80
2020/12/13 02:18:48;;;;;;;42.35;28.32;;;;;;;2.88;86.87;99882.86;1715519;81;25718;-80
2020/12/13 02:21:15;;;;;;;44.83;28.87;;;;;;;2.95;87.05;99884.95;1723421;81;26366;-79
2020/12/13 02:23:43;;;;;;;46.73;30.60;;;;;;;2.95;86.79;99884.47;1722594;81;25705;-79
2020/12/13 02:26:12;;;;;;;42.50;27.77;;;;;;;2.92;86.67;99882.59;1717731;81;25823;-79
2020/12/13 02:28:39;;;;;;;51.63;29.80;;;;;;;2.94;86.87;99878.95;1726042;82;25876;-80
2020/12/13 02:31:06;;;;;;;42.95;26.82;;;;;;;2.97;86.83;99886.43;1718963;82;26212;-79
2020/12/13 02:33:35;;;;;;;44.88;27.30;;;;;;;2.94;86.66;99892.33;1719431;81;25741;-80
2020/12/13 02:36:03;;;;;;;46.73;28.05;;;;;;;2.90;86.70;99887.91;1716915;82;26221;-80
2020/12/13 02:38:31;;;;;;;44.45;26.17;;;;;;;2.88;86.79;99885.91;1723548;81;25985;-79
2020/12/13 02:40:59;;;;;;;43.28;26.62;;;;;;;2.88;86.81;99887.20;1721301;81;26442;-80
2020/12/13 02:43:26;;;;;;;41.83;24.95;;;;;;;2.93;86.81;99894.58;1736711;81;25820;-80
2020/12/13 02:45:52;;;;;;;37.03;24.12;;;;;;;2.93;86.81;99894.58;1728163;81;26619;-80
2020/12/13 02:48:19;;;;;;;38.02;23.87;;;;;;;2.95;86.87;99888.82;1729134;81;26326;-79
2020/12/13 02:50:45;;;;;;;37.28;24.00;;;;;;;2.83;86.47;99870.80;1717781;81;26533;-79
2020/12/13 02:53:11;;;;;;;38.88;24.55;;;;;;;2.96;86.77;99892.55;1695663;82;25681;-79
2020/12/13 02:55:38;;;;;;;32.90;22.58;;;;;;;2.97;86.75;99893.36;1727882;81;26324;-79
2020/12/13 02:58:04;;;;;;;36.20;23.60;;;;;;;2.98;86.97;99894.54;1729109;81;26375;-79
2020/12/13 03:00:30;;;;;;;40.95;24.70;;;;;;;2.98;86.97;99894.54;1727367;82;25752;-79
2020/12/13 03:02:57;;;;;;;38.95;25.25;;;;;;;3.01;86.63;99902.50;1695637;82;26466;-79
2020/12/13 03:05:23;;;;;;;37.38;24.18;;;;;;;3.00;86.65;99903.42;1726510;81;25626;-79
2020/12/13 03:07:49;;;;;;;38.63;24.35;;;;;;;2.99;86.64;99901.80;1730354;82;25721;-79
2020/12/13 03:10:15;;;;;;;37.60;23.70;;;;;;;2.97;86.41;99903.69;1727745;81;26883;-79
2020/12/13 03:12:42;;;;;;;43.65;26.45;;;;;;;2.97;86.41;99903.69;1725351;81;26013;-79
2020/12/13 03:15:08;;;;;;;43.02;25.57;;;;;;;2.94;86.79;99894.91;1731607;81;26410;-79
2020/12/13 03:17:34;;;;;;;37.42;24.20;;;;;;;2.99;86.80;99906.97;1733960;82;25644;-79
2020/12/13 03:20:01;;;;;;;36.42;23.57;;;;;;;2.92;86.74;99900.66;1707456;82;25870;-79
2020/12/13 03:22:27;;;;;;;34.55;22.30;;;;;;;2.98;86.87;99913.09;1705435;81;25665;-79
2020/12/13 03:24:53;;;;;;;32.83;21.95;;;;;;;2.96;86.83;99908.52;1718494;81;25749;-79
2020/12/13 03:27:25;;;;;;;33.13;21.95;;;;;;;2.72;86.65;99885.55;1726812;81;26299;-79
2020/12/13 03:29:48;;;;;;;34.48;22.77;;;;;;;2.82;86.71;99905.78;1724264;82;25964;-79
2020/12/13 03:32:14;;;;;;;34.78;21.52;;;;;;;2.98;86.57;99925.99;1695173;81;25807;-79
2020/12/13 03:34:40;;;;;;;33.58;21.60;;;;;;;2.99;86.89;99928.91;1726793;81;26578;-79
2020/12/13 03:37:07;;;;;;;36.75;20.35;;;;;;;2.99;86.89;99928.91;1733189;81;25471;-79
2020/12/13 03:39:33;;;;;;;33.40;20.45;;;;;;;2.99;86.74;99923.75;1727408;82;25669;-79
2020/12/13 03:41:59;;;;;;;31.35;20.85;;;;;;;3.05;86.78;99932.27;1729391;82;25786;-79
2020/12/13 03:44:26;;;;;;;34.15;21.85;;;;;;;3.05;86.69;99937.43;1730607;82;25671;-79
2020/12/13 03:46:52;;;;;;;34.75;21.70;;;;;;;3.04;86.67;99931.93;1737120;81;25575;-79
2020/12/13 03:49:19;;;;;;;36.15;21.33;;;;;;;3.06;86.71;99933.92;1728047;81;25904;-79
2020/12/13 03:51:45;;;;;;;32.42;21.25;;;;;;;3.04;86.63;99932.75;1730815;81;25967;-79
2020/12/13 03:54:11;;;;;;;31.77;20.85;;;;;;;2.99;86.52;99936.17;1729372;81;26404;-79
2020/12/13 03:56:38;;;;;;;30.75;20.72;;;;;;;2.97;86.63;99934.66;1732578;81;25696;-79
2020/12/13 03:59:04;;;;;;;28.50;19.37;;;;;;;2.95;86.77;99937.86;1723550;81;25667;-79
2020/12/13 04:01:30;;;;;;;32.53;18.77;;;;;;;2.94;86.95;99937.50;1723124;81;25893;-79
2020/12/13 04:03:56;;;;;;;29.67;19.02;;;;;;;2.94;86.95;99937.50;1723320;82;25329;-79
2020/12/13 04:06:23;;;;;;;26.35;17.35;;;;;;;2.96;86.77;99939.48;1727466;81;25902;-79
2020/12/13 04:08:49;;;;;;;28.60;16.40;;;;;;;2.94;86.57;99938.31;1734935;82;26358;-79
2020/12/13 04:11:15;;;;;;;27.80;16.62;;;;;;;2.84;86.71;99924.08;1730653;81;25915;-79
2020/12/13 04:13:42;;;;;;;22.85;15.45;;;;;;;3.02;86.82;99946.24;1725296;81;25596;-79
2020/12/13 04:16:13;;;;;;;26.20;16.60;;;;;;;3.04;86.40;99946.13;1730947;81;25752;-79
2020/12/13 04:18:40;;;;;;;22.45;15.43;;;;;;;3.04;86.40;99946.13;1725061;81;25813;-79
2020/12/13 04:21:06;;;;;;;25.37;17.10;;;;;;;2.87;86.52;99916.55;1731840;82;25755;-79
2020/12/13 04:23:33;;;;;;;26.82;16.93;;;;;;;3.02;86.44;99954.47;1730477;82;25800;-79
2020/12/13 04:25:59;;;;;;;24.77;16.02;;;;;;;2.96;86.29;99955.79;1730053;81;25789;-79
2020/12/13 04:28:25;;;;;;;24.50;16.05;;;;;;;2.89;86.35;99951.62;1705271;82;26175;-79
2020/12/13 04:30:52;;;;;;;26.48;16.52;;;;;;;2.88;86.56;99947.86;1729970;81;26355;-78
2020/12/13 04:33:18;;;;;;;21.20;14.98;;;;;;;2.89;86.63;99945.61;1730436;81;25721;-79
2020/12/13 04:35:44;;;;;;;21.23;14.40;;;;;;;2.86;86.62;99953.16;1721384;81;26483;-79
2020/12/13 04:38:11;;;;;;;19.37;13.35;;;;;;;2.85;86.57;99948.92;1733917;82;25800;-79
2020/12/13 04:40:37;;;;;;;20.95;12.68;;;;;;;2.87;86.73;99952.69;1734741;82;25730;-79
2020/12/13 04:43:04;;;;;;;20.85;13.60;;;;;;;2.88;86.75;99941.41;1724408;81;25813;-80
2020/12/13 04:45:30;;;;;;;20.72;14.20;;;;;;;2.94;86.67;99943.95;1726872;81;25728;-79
2020/12/13 04:48:07;;;;;;;19.75;12.70;;;;;;;2.94;86.56;99946.06;1725951;81;26430;-79
2020/12/13 04:50:37;;;;;;;19.52;12.18;;;;;;;2.97;86.55;99952.73;1731838;81;25774;-79
2020/12/13 04:53:09;;;;;;;20.77;14.20;;;;;;;2.96;86.51;99942.88;1732550;81;25780;-79
2020/12/13 04:55:58;;;;;;;22.52;14.85;;;;;;;3.04;86.52;99947.42;1729258;82;25820;-79
2020/12/13 04:58:27;;;;;;;22.10;14.10;;;;;;;3.07;86.55;99944.10;1733672;82;25659;-79
2020/12/13 05:01:01;;;;;;;24.67;14.35;;;;;;;3.06;86.37;99946.83;1732484;81;25697;-79
2020/12/13 05:03:29;;;;;;;20.48;13.40;;;;;;;3.04;86.67;99947.42;1727475;82;26493;-79
2020/12/13 05:06:01;;;;;;;21.62;14.70;;;;;;;3.04;86.67;99947.42;1731877;81;25700;-79
2020/12/13 05:08:30;;;;;;;22.32;15.13;;;;;;;2.91;86.38;99933.41;1732283;81;25734;-79
2020/12/13 05:10:57;;;;;;;23.25;14.53;;;;;;;2.91;86.38;99933.41;1735028;82;25528;-79
2020/12/13 05:13:24;;;;;;;22.37;14.25;;;;;;;3.01;86.50;99954.94;1728618;81;25705;-79
2020/12/13 05:15:50;;;;;;;21.75;14.47;;;;;;;3.00;86.22;99962.80;1730089;81;25688;-79
2020/12/13 05:18:16;;;;;;;19.30;13.72;;;;;;;2.97;86.40;99961.29;1733659;82;25814;-79
2020/12/13 05:20:46;;;;;;;22.02;14.35;;;;;;;2.98;86.46;99963.42;1729190;81;26281;-79
2020/12/13 05:23:13;;;;;;;18.77;12.65;;;;;;;2.97;86.38;99964.34;1729304;81;25689;-79
2020/12/13 05:25:40;;;;;;;20.45;12.40;;;;;;;2.99;86.38;99963.76;1722717;81;26423;-79
2020/12/13 05:28:10;;;;;;;16.80;11.73;;;;;;;2.85;86.25;99949.41;1729621;81;25518;-79
2020/12/13 05:30:43;;;;;;;17.40;11.55;;;;;;;2.96;86.38;99967.41;1737161;82;25736;-79
2020/12/13 05:33:17;;;;;;;16.00;11.55;;;;;;;2.96;86.31;99968.70;1725382;81;25916;-79
2020/12/13 05:35:40;;;;;;;17.85;12.07;;;;;;;2.99;86.57;99970.21;1716496;82;25696;-79
2020/12/13 05:38:10;;;;;;;18.75;12.03;;;;;;;2.92;86.27;99960.88;1734632;82;25853;-79
2020/12/13 05:40:37;;;;;;;17.37;12.73;;;;;;;2.99;86.28;99978.77;1721146;81;26327;-79
2020/12/13 05:43:19;;;;;;;17.17;12.00;;;;;;;3.00;86.30;99975.27;1730562;81;25887;-79
2020/12/13 05:51:13;;;;;;;17.37;12.35;;;;;;;2.94;86.35;99987.83;1631053;86;26096;-79
2020/12/13 05:53:33;;;;;;;18.45;12.33;;;;;;;2.81;86.21;99969.49;1607586;87;25867;-79
2020/12/13 05:55:59;;;;;;;17.40;11.60;;;;;;;2.86;86.32;99987.16;1609540;87;26426;-78
2020/12/13 05:58:26;;;;;;;14.25;11.40;;;;;;;2.87;86.45;99990.11;1620952;85;26285;-79
2020/12/13 06:00:55;;;;;;;15.43;11.33;;;;;;;2.88;86.38;99991.26;1628428;87;26397;-79
2020/12/13 06:03:35;;;;;;;18.45;12.03;;;;;;;2.84;86.20;99990.36;1625658;87;26468;-79
2020/12/13 06:06:10;;;;;;;16.45;10.98;;;;;;;2.86;86.28;99988.45;1633438;87;25976;-79
2020/12/13 06:08:57;;;;;;;16.97;11.12;;;;;;;2.89;86.39;99989.48;1646806;85;25770;-79
2020/12/13 06:11:29;;;;;;;17.92;11.63;;;;;;;2.91;86.31;99993.25;1582957;89;25374;-79
2020/12/13 06:13:58;;;;;;;19.85;12.45;;;;;;;2.93;86.34;99998.64;1586256;87;25320;-79
2020/12/13 06:16:26;;;;;;;16.30;13.38;;;;;;;2.97;86.40;99997.91;1574578;89;27735;-79
2020/12/13 06:18:52;;;;;;;16.93;12.93;;;;;;;2.87;86.45;99978.02;1596469;89;26143;-79
2020/12/13 06:21:19;;;;;;;18.17;12.97;;;;;;;2.87;86.45;99978.02;1591865;88;34976;-79
2020/12/13 06:23:47;;;;;;;17.05;12.18;;;;;;;3.01;86.36;100004.47;1597220;89;25746;-79
2020/12/13 06:26:14;;;;;;;21.00;13.32;;;;;;;2.94;86.12;99995.10;1597290;87;25819;-79
2020/12/13 06:28:41;;;;;;;16.87;12.00;;;;;;;2.82;86.19;99992.23;1637034;84;26451;-79
2020/12/13 06:31:07;;;;;;;17.70;11.90;;;;;;;2.87;86.04;100012.86;1655406;84;26496;-78
2020/12/13 06:33:41;;;;;;;17.50;12.75;;;;;;;2.87;86.04;100012.86;1635259;84;25873;-79
2020/12/13 06:36:09;;;;;;;17.82;12.50;;;;;;;2.87;86.40;100020.60;1654282;84;26721;-78
2020/12/13 06:38:36;;;;;;;15.93;11.03;;;;;;;2.87;86.40;100020.60;1655088;84;26707;-79
2020/12/13 06:41:13;;;;;;;16.25;11.25;;;;;;;2.88;86.55;100023.52;1635405;86;25700;-78
2020/12/13 06:43:50;;;;;;;15.18;10.75;;;;;;;2.83;86.32;100010.64;1653990;84;26031;-78
2020/12/13 06:46:19;;;;;;;12.35;9.95;;;;;;;2.83;86.32;100010.64;1651216;84;25374;-77
2020/12/13 06:48:46;;;;;;;15.85;9.88;;;;;;;2.80;86.10;100002.67;1688952;82;25268;-78
2020/12/13 06:51:34;;;;;;;16.65;11.03;;;;;;;2.88;86.00;100038.19;1724517;81;25344;-78
2020/12/13 06:54:05;;;;;;;16.50;11.80;;;;;;;2.88;86.00;100038.19;1725702;81;25807;-78
2020/12/13 06:56:31;;;;;;;;;;;;;;;2.76;86.05;100027.10;1731082;81;25733;-78
2020/12/13 06:59:00;;;;;;;17.17;12.20;;;;;;;2.83;85.95;100048.88;1729585;81;26324;-78
2020/12/13 07:01:37;;;;;;;16.00;11.67;;;;;;;2.84;86.11;100051.02;1732756;81;25856;-78
2020/12/13 07:04:37;;;;;;;17.55;12.47;;;;;;;2.84;86.19;100055.70;1726139;82;25685;-78
2020/12/13 07:07:12;;;;;;;18.07;12.45;;;;;;;2.80;86.10;100047.83;1728112;81;25856;-78
2020/12/13 07:09:35;;;;;;;17.12;12.70;;;;;;;2.82;86.23;100056.76;1735233;82;25500;-78
2020/12/13 07:12:03;;;;;;;19.37;12.78;;;;;;;2.78;86.06;100059.22;1734510;82;25797;-78
2020/12/13 07:14:34;;;;;;;20.17;13.15;;;;;;;2.75;86.17;100062.86;1729387;81;25703;-78
2020/12/13 07:17:06;;;;;;;18.45;13.10;;;;;;;2.77;86.20;100058.88;1728929;81;25807;-78
2020/12/13 07:19:37;;;;;;;23.05;13.98;;;;;;;2.78;86.22;100057.93;1722508;81;26449;-78
2020/12/13 07:22:13;;;;;;;22.77;14.20;;;;;;;2.66;86.15;100040.38;1719927;81;25827;-78
2020/12/13 07:24:42;;;;;;;21.55;14.73;;;;;;;2.81;86.17;100064.98;1717958;82;25668;-78
2020/12/13 07:27:10;;;;;;;28.45;18.07;;;;;;;2.81;86.08;100059.81;1724524;81;26210;-78
2020/12/13 07:29:36;;;;;;;26.73;17.57;;;;;;;2.82;86.01;100067.08;1728339;81;25704;-78
2020/12/13 07:32:04;;;;;;;26.05;17.37;;;;;;;2.80;85.92;100067.66;1728305;81;25810;-78
2020/12/13 07:34:31;;;;;;;31.05;18.50;;;;;;;2.80;86.01;100071.06;1728385;81;25493;-78
2020/12/13 07:37:01;;;;;;;30.40;20.00;;;;;;;2.80;85.98;100077.52;1725369;81;25729;-79
2020/12/13 07:39:29;;;;;;;41.77;25.00;;;;;;;2.80;85.94;100080.57;1727771;81;25864;-78
2020/12/13 07:41:56;;;;;;;64.20;34.75;;;;;;;2.78;85.99;100075.55;1701892;82;26579;-78
2020/12/13 07:44:24;;;;;;;60.17;30.48;;;;;;;2.77;85.93;100082.92;1741777;81;26030;-78
2020/12/13 07:46:51;;;;;;;37.95;24.32;;;;;;;2.69;85.80;100082.70;1717304;81;26292;-78
2020/12/13 07:49:20;;;;;;;35.80;22.67;;;;;;;2.69;85.80;100082.70;1724624;82;25696;-78
2020/12/13 07:51:53;;;;;;;34.65;23.18;;;;;;;2.72;85.94;100086.81;1723894;81;25672;-78
2020/12/13 07:54:22;;;;;;;38.23;25.30;;;;;;;2.74;85.85;100085.75;1730777;81;25855;-78
2020/12/13 07:56:52;;;;;;;54.58;36.80;;;;;;;2.75;85.84;100089.14;1730617;81;26420;-78
2020/12/13 07:59:27;;;;;;;36.93;25.40;;;;;;;2.77;85.72;100093.72;1734541;82;26375;-78
2020/12/13 08:01:56;;;;;;;33.48;21.02;;;;;;;2.77;85.68;100098.88;1728360;82;25264;-78
2020/12/13 08:04:40;;;;;;;36.35;24.92;;;;;;;2.82;85.88;100101.92;1721500;82;25703;-78
2020/12/13 08:07:10;;;;;;;35.65;22.93;;;;;;;2.83;85.75;100104.36;1704401;82;25674;-77
2020/12/13 08:09:43;;;;;;;29.85;19.50;;;;;;;2.82;85.71;100109.19;1722588;81;25862;-78
2020/12/13 08:12:12;;;;;;;29.63;19.85;;;;;;;2.79;85.56;100114.59;1721634;81;26562;-78
2020/12/13 08:14:38;;;;;;;27.93;18.55;;;;;;;2.77;85.70;100115.66;1727431;81;25710;-78
2020/12/13 08:17:05;;;;;;;28.02;18.87;;;;;;;2.73;85.66;100118.95;1734071;82;25751;-78
2020/12/13 08:19:39;;;;;;;27.65;16.80;;;;;;;2.64;85.69;100106.28;1723730;82;25753;-78
2020/12/13 08:22:17;;;;;;;31.90;16.50;;;;;;;2.69;85.83;100118.83;1725182;81;27065;-78
2020/12/13 08:24:47;;;;;;;25.43;16.37;;;;;;;2.68;85.75;100118.50;1727294;81;25751;-78
2020/12/13 08:27:16;;;;;;;27.13;17.02;;;;;;;2.63;85.69;100121.42;1727733;81;25732;-78
2020/12/13 08:29:42;;;;;;;26.97;18.15;;;;;;;2.66;85.87;100129.39;1722013;82;25681;-78
2020/12/13 08:32:13;;;;;;;25.45;17.92;;;;;;;2.67;85.85;100131.02;1698423;81;25745;-78
2020/12/13 08:34:40;;;;;;;29.25;16.85;;;;;;;2.71;85.92;100135.50;1726573;81;26775;-78
2020/12/13 08:37:07;;;;;;;23.57;16.40;;;;;;;2.75;85.96;100133.83;1729497;81;25830;-78
2020/12/13 08:39:37;;;;;;;28.27;18.42;;;;;;;2.72;85.75;100128.09;1703504;82;36635;-78
2020/12/13 08:42:06;;;;;;;24.30;16.90;;;;;;;2.77;85.79;100135.01;1707192;82;25638;-78
2020/12/13 08:44:40;;;;;;;25.37;17.92;;;;;;;2.79;85.79;100141.69;1719910;81;26113;-78
2020/12/13 08:47:11;;;;;;;22.87;15.93;;;;;;;2.79;85.54;100142.17;1732150;81;27512;-78
2020/12/13 08:49:40;;;;;;;25.92;16.55;;;;;;;2.70;85.75;100124.36;1730757;81;25728;-78
2020/12/13 08:52:22;;;;;;;39.55;26.77;;;;;;;2.80;85.74;100147.67;1721063;81;25735;-78
2020/12/13 08:54:53;;;;;;;34.48;23.77;;;;;;;2.79;85.74;100151.20;1723649;81;25664;-78
2020/12/13 08:57:34;;;;;;;28.87;18.62;;;;;;;2.79;86.05;100150.73;1725246;81;26301;-78
2020/12/13 09:00:06;;;;;;;24.40;16.45;;;;;;;2.70;85.70;100136.42;1726564;81;25795;-77
2020/12/13 09:02:32;;;;;;;26.30;16.37;;;;;;;2.70;85.70;100136.42;1728648;81;25793;-78
2020/12/13 09:05:01;;;;;;;28.32;16.20;;;;;;;2.81;85.71;100145.42;1728450;81;26404;-78
2020/12/13 09:07:31;;;;;;;28.73;17.02;;;;;;;2.70;85.76;100130.81;1724731;81;26326;-78
2020/12/13 09:09:56;;;;;;;29.27;16.65;;;;;;;2.70;85.76;100130.81;1731182;82;25679;-78
2020/12/13 09:12:28;;;;;;;33.73;19.87;;;;;;;2.83;85.48;100151.30;1707346;82;26324;-78
2020/12/13 09:14:50;;;;;;;33.45;20.60;;;;;;;2.84;85.44;100152.48;1733863;82;25744;-78
2020/12/13 09:17:23;;;;;;;33.58;21.02;;;;;;;2.67;85.18;100138.77;1733811;81;25705;-78
2020/12/13 09:19:52;;;;;;;33.55;18.98;;;;;;;2.77;85.30;100159.05;1729012;81;25809;-78
2020/12/13 09:22:23;;;;;;;31.73;19.35;;;;;;;2.73;85.19;100160.69;1720737;81;25448;-78
2020/12/13 09:24:51;;;;;;;34.90;20.05;;;;;;;2.69;85.39;100156.25;1735299;81;25743;-78
2020/12/13 09:27:18;;;;;;;39.70;23.90;;;;;;;2.69;85.39;100156.25;1734038;82;25740;-78
2020/12/13 09:29:47;;;;;;;42.98;25.65;;;;;;;2.70;85.15;100156.62;1734581;82;25649;-78
2020/12/13 09:32:16;;;;;;;47.58;29.42;;;;;;;2.70;85.15;100156.62;1734616;82;25642;-77
2020/12/13 09:34:44;;;;;;;39.00;26.50;;;;;;;2.73;85.45;100158.95;1728099;81;25689;-77
2020/12/13 09:37:13;;;;;;;40.12;25.57;;;;;;;2.70;85.24;100157.91;1732875;81;25721;-78
2020/12/13 09:39:40;;;;;;;37.40;25.60;;;;;;;2.71;85.37;100162.12;1730016;81;25653;-78
2020/12/13 09:42:07;;;;;;;38.08;23.05;;;;;;;2.74;85.28;100154.61;1724316;81;26569;-77
2020/12/13 09:44:34;;;;;;;36.33;23.45;;;;;;;2.73;85.18;100158.95;1731616;81;25748;-78
2020/12/13 09:47:01;;;;;;;33.88;22.52;;;;;;;2.77;85.23;100155.17;1732558;82;25825;-78
2020/12/13 09:49:30;;;;;;;29.70;18.10;;;;;;;2.81;85.15;100160.91;1720937;81;26347;-78
2020/12/13 09:52:00;;;;;;;24.77;16.55;;;;;;;2.81;85.18;100155.30;1728073;81;26359;-78
2020/12/13 09:54:27;;;;;;;27.20;16.32;;;;;;;2.74;85.24;100136.06;1721254;82;25864;-78
2020/12/13 09:56:54;;;;;;;23.50;14.95;;;;;;;2.87;84.84;100154.00;1722042;81;26287;-78
2020/12/13 09:59:23;;;;;;;20.35;12.75;;;;;;;2.86;85.09;100155.77;1716639;81;25724;-77
2020/12/13 10:01:50;;;;;;;20.30;13.03;;;;;;;2.86;85.09;100155.77;1720902;81;25868;-77
2020/12/13 10:04:20;;;;;;;16.23;11.35;;;;;;;2.84;84.91;100156.35;1719725;82;25800;-78
2020/12/13 10:07:16;;;;;;;21.40;14.45;;;;;;;2.83;84.92;100155.16;1723616;81;25637;-77
2020/12/13 10:09:26;;;;;;;24.18;12.93;;;;;;;2.84;84.88;100159.41;1709082;81;25728;-78
2020/12/13 10:11:53;;;;;;;18.02;10.65;;;;;;;2.80;84.75;100160.09;1721652;81;25796;-78
2020/12/13 10:14:20;;;;;;;19.17;11.48;;;;;;;2.85;84.95;100153.30;1762327;81;26131;-78
2020/12/13 10:16:47;;;;;;;19.12;12.07;;;;;;;2.85;84.95;100153.30;1762555;81;26349;-78
2020/12/13 10:19:13;;;;;;;16.55;11.20;;;;;;;2.76;84.77;100126.93;1734265;81;25784;-80
2020/12/13 10:21:39;;;;;;;17.80;12.18;;;;;;;2.94;84.66;100156.91;1708514;82;26337;-80
2020/12/13 10:24:07;;;;;;;18.20;11.18;;;;;;;2.93;84.61;100155.28;1723591;81;25854;-80
2020/12/13 10:26:38;;;;;;;16.55;11.55;;;;;;;2.95;84.60;100149.53;1694728;82;27164;-81
2020/12/13 10:29:07;;;;;;;18.90;12.63;;;;;;;2.95;84.57;100149.53;1700020;84;25687;-80
2020/12/13 10:31:35;;;;;;;19.35;13.35;;;;;;;2.98;84.65;100151.87;1700076;84;25852;-78
2020/12/13 10:34:09;;;;;;;23.52;16.85;;;;;;;3.01;84.63;100143.88;1700385;82;25745;-78
2020/12/13 10:36:38;;;;;;;21.57;13.72;;;;;;;2.99;84.46;100148.33;1720003;81;25291;-78
2020/12/13 10:39:07;;;;;;;21.25;12.90;;;;;;;2.82;84.20;100123.86;1717967;81;25885;-78
2020/12/13 10:41:34;;;;;;;22.52;15.00;;;;;;;2.79;84.42;100124.92;1716875;81;25678;-78
2020/12/13 10:44:02;;;;;;;17.32;11.78;;;;;;;2.87;84.28;100139.33;1727036;81;26507;-78
2020/12/13 10:46:31;;;;;;;16.30;10.93;;;;;;;2.89;84.35;100143.91;1727790;82;25740;-80
2020/12/13 10:48:58;;;;;;;16.23;10.75;;;;;;;2.89;84.35;100143.91;1719998;82;26401;-80
2020/12/13 10:51:24;;;;;;;18.23;11.20;;;;;;;2.91;84.04;100142.95;1722749;81;25568;-80
2020/12/13 10:53:50;;;;;;;16.93;11.25;;;;;;;2.92;84.01;100144.14;1724564;81;25687;-80
2020/12/13 10:56:17;;;;;;;19.30;12.63;;;;;;;2.94;84.07;100140.94;1720214;81;25749;-80
2020/12/13 10:58:44;;;;;;;29.90;20.37;;;;;;;2.98;84.17;100137.19;1719523;81;25685;-78
2020/12/13 11:01:13;;;;;;;28.02;19.30;;;;;;;2.98;84.17;100137.19;1719983;82;25757;-78
2020/12/13 11:03:40;;;;;;;23.67;15.78;;;;;;;3.01;84.20;100138.71;1719813;81;25642;-79
2020/12/13 11:06:11;;;;;;;20.50;14.18;;;;;;;3.02;84.21;100139.86;1727091;82;25772;-78
2020/12/13 11:08:38;;;;;;;18.98;12.70;;;;;;;3.01;84.27;100138.71;1729432;82;25776;-78
2020/12/13 11:11:06;;;;;;;16.00;10.93;;;;;;;3.01;84.27;100138.71;1715204;82;25838;-79
2020/12/13 11:13:35;;;;;;;15.20;11.00;;;;;;;3.00;84.10;100135.31;1713212;81;25931;-78
2020/12/13 11:16:02;;;;;;;13.62;9.40;;;;;;;2.99;83.84;100134.95;1720717;81;30833;-78
2020/12/13 11:18:34;;;;;;;22.22;16.25;;;;;;;2.98;83.83;100127.34;1719697;81;25727;-78
2020/12/13 11:21:00;;;;;;;15.38;11.45;;;;;;;2.97;83.78;100132.14;1719035;82;25464;-78
2020/12/13 11:23:27;;;;;;;14.00;9.60;;;;;;;2.88;83.61;100114.33;1725977;82;26232;-78
2020/12/13 11:25:54;;;;;;;14.00;9.90;;;;;;;2.97;84.18;100125.20;1723228;81;25812;-78
2020/12/13 11:28:20;;;;;;;19.60;12.15;;;;;;;2.98;83.64;100128.63;1729101;82;26149;-78
2020/12/13 11:30:48;;;;;;;18.40;12.18;;;;;;;2.98;83.64;100136.38;1729116;82;25837;-78
2020/12/13 11:33:17;;;;;;;18.12;13.55;;;;;;;3.08;83.73;100153.60;1724896;81;25747;-78